createdAt,value
2024-05-09T00:00:58.217Z,15.5
2024-05-09T00:02:15.334Z,15.5
2024-05-09T00:03:32.242Z,15.3
2024-05-09T00:04:49.295Z,15.1
2024-05-09T00:06:06.305Z,14.9
2024-05-09T00:07:23.289Z,14.7
2024-05-09T00:08:40.305Z,14.6
2024-05-09T00:09:57.231Z,14.5
2024-05-09T00:11:14.379Z,14.4
2024-05-09T00:12:31.237Z,14.4
2024-05-09T00:13:48.291Z,14.3
2024-05-09T00:15:05.258Z,14.2
2024-05-09T00:16:22.281Z,14.1
2024-05-09T00:17:39.462Z,14.2
2024-05-09T00:18:56.353Z,14.3
2024-05-09T00:20:17.396Z,14.5
2024-05-09T00:21:30.442Z,14.5
2024-05-09T00:22:47.273Z,14.6
2024-05-09T00:24:04.246Z,14.7
2024-05-09T00:25:21.252Z,14.8
2024-05-09T00:26:38.360Z,14.9
2024-05-09T00:27:55.268Z,14.9
2024-05-09T00:29:12.273Z,15
2024-05-09T00:30:32.978Z,14.9
2024-05-09T00:31:46.388Z,14.9
2024-05-09T00:33:03.768Z,15
2024-05-09T00:34:20.347Z,14.9
2024-05-09T00:35:37.408Z,14.9
2024-05-09T00:36:54.310Z,14.9
2024-05-09T00:38:11.332Z,14.9
2024-05-09T00:39:28.270Z,14.9
2024-05-09T00:40:45.304Z,14.9
2024-05-09T00:42:02.341Z,14.9
2024-05-09T00:43:19.274Z,14.9
2024-05-09T00:44:36.319Z,14.9
2024-05-09T00:45:53.406Z,14.9
2024-05-09T00:47:10.426Z,14.9
2024-05-09T00:48:27.562Z,14.9
2024-05-09T00:49:44.427Z,14.9
2024-05-09T00:51:01.326Z,14.9
2024-05-09T00:52:18.281Z,14.9
2024-05-09T00:53:35.406Z,14.9
2024-05-09T00:54:52.277Z,14.8
2024-05-09T00:56:09.401Z,14.8
2024-05-09T00:57:26.425Z,14.8
2024-05-09T00:58:43.368Z,14.8
2024-05-09T01:00:00.346Z,14.8
2024-05-09T01:01:17.361Z,14.8
2024-05-09T01:02:34.334Z,14.7
2024-05-09T01:03:51.648Z,14.8
2024-05-09T01:05:08.339Z,14.8
2024-05-09T01:06:25.314Z,14.8
2024-05-09T01:07:42.421Z,14.8
2024-05-09T01:08:59.329Z,14.7
2024-05-09T01:10:17.572Z,14.7
2024-05-09T01:11:33.421Z,14.7
2024-05-09T01:12:50.391Z,14.7
2024-05-09T01:14:07.388Z,14.7
2024-05-09T01:15:24.338Z,14.6
2024-05-09T01:16:41.322Z,14.6
2024-05-09T01:17:58.625Z,14.4
2024-05-09T01:19:15.615Z,14.2
2024-05-09T01:20:39.444Z,14
2024-05-09T01:21:49.329Z,13.8
2024-05-09T01:23:06.401Z,13.7
2024-05-09T01:24:23.329Z,13.6
2024-05-09T01:25:40.344Z,13.5
2024-05-09T01:26:57.328Z,13.4
2024-05-09T01:28:14.487Z,13.3
2024-05-09T01:29:31.449Z,13.2
2024-05-09T01:30:48.365Z,13.1
2024-05-09T01:32:05.378Z,13.2
2024-05-09T01:33:22.489Z,13.3
2024-05-09T01:34:39.375Z,13.4
2024-05-09T01:35:56.418Z,13.5
2024-05-09T01:37:13.386Z,13.6
2024-05-09T01:38:30.669Z,13.7
2024-05-09T01:39:47.350Z,13.8
2024-05-09T01:41:04.417Z,13.9
2024-05-09T01:42:21.437Z,14
2024-05-09T01:43:38.521Z,14
2024-05-09T01:44:55.456Z,14
2024-05-09T01:46:12.414Z,14
2024-05-09T01:47:29.561Z,14
2024-05-09T01:48:46.535Z,14
2024-05-09T01:50:03.585Z,14
2024-05-09T01:51:20.402Z,14.1
2024-05-09T01:52:37.371Z,14.1
2024-05-09T01:53:54.416Z,14.1
2024-05-09T01:55:11.455Z,14.1
2024-05-09T01:56:28.405Z,14.1
2024-05-09T01:57:45.415Z,14.1
2024-05-09T01:59:02.609Z,14.1
2024-05-09T02:00:26.184Z,14.1
2024-05-09T02:01:54.844Z,14.1
2024-05-09T02:02:53.478Z,14.1
2024-05-09T02:04:10.546Z,14.1
2024-05-09T02:05:27.925Z,14
2024-05-09T02:06:44.392Z,14
2024-05-09T02:08:01.525Z,14
2024-05-09T02:09:18.434Z,13.9
2024-05-09T02:10:35.522Z,13.9
2024-05-09T02:11:52.422Z,13.9
2024-05-09T02:13:09.434Z,13.8
2024-05-09T02:14:26.553Z,13.8
2024-05-09T02:15:43.574Z,13.8
2024-05-09T02:17:00.451Z,13.8
2024-05-09T02:18:17.522Z,13.8
2024-05-09T02:19:34.468Z,13.7
2024-05-09T02:20:51.499Z,13.6
2024-05-09T02:22:08.463Z,13.7
2024-05-09T02:23:25.452Z,13.7
2024-05-09T02:24:42.604Z,13.7
2024-05-09T02:25:59.503Z,13.8
2024-05-09T02:27:16.502Z,13.8
2024-05-09T02:28:33.446Z,13.8
2024-05-09T02:29:50.419Z,13.8
2024-05-09T02:31:07.446Z,13.8
2024-05-09T02:32:24.597Z,13.8
2024-05-09T02:33:41.521Z,13.9
2024-05-09T02:34:58.558Z,13.9
2024-05-09T02:36:15.435Z,13.7
2024-05-09T02:37:32.465Z,13.6
2024-05-09T02:38:49.434Z,13.4
2024-05-09T02:40:09.082Z,13.2
2024-05-09T02:41:23.614Z,13
2024-05-09T02:42:40.512Z,12.9
2024-05-09T02:43:57.500Z,12.8
2024-05-09T02:45:14.566Z,12.7
2024-05-09T02:46:31.564Z,12.6
2024-05-09T02:47:48.856Z,12.5
2024-05-09T02:49:05.540Z,12.5
2024-05-09T02:50:26.664Z,12.5
2024-05-09T02:51:39.481Z,12.8
2024-05-09T02:52:56.501Z,12.9
2024-05-09T02:54:13.483Z,13
2024-05-09T02:55:30.647Z,13.2
2024-05-09T02:56:47.474Z,13.3
2024-05-09T02:58:04.495Z,13.4
2024-05-09T02:59:21.709Z,13.4
2024-05-09T03:00:40.326Z,13.5
2024-05-09T03:01:55.641Z,13.5
2024-05-09T03:03:13.871Z,13.5
2024-05-09T03:04:29.598Z,13.5
2024-05-09T03:05:46.907Z,13.5
2024-05-09T03:07:03.499Z,13.5
2024-05-09T03:08:20.537Z,13.5
2024-05-09T03:09:37.507Z,13.6
2024-05-09T03:10:54.629Z,13.5
2024-05-09T03:12:11.590Z,13.5
2024-05-09T03:13:28.515Z,13.6
2024-05-09T03:14:45.480Z,13.6
2024-05-09T03:16:02.619Z,13.6
2024-05-09T03:17:19.707Z,13.6
2024-05-09T03:18:36.597Z,13.7
2024-05-09T03:19:53.541Z,13.6
2024-05-09T03:21:10.592Z,13.6
2024-05-09T03:22:27.515Z,13.6
2024-05-09T03:23:44.653Z,13.6
2024-05-09T03:25:01.508Z,13.5
2024-05-09T03:26:18.642Z,13.5
2024-05-09T03:27:35.523Z,13.6
2024-05-09T03:28:52.563Z,13.6
2024-05-09T03:30:09.928Z,13.5
2024-05-09T03:31:26.870Z,13.5
2024-05-09T03:32:43.760Z,13.5
2024-05-09T03:34:00.717Z,13.3
2024-05-09T03:35:17.573Z,13.1
2024-05-09T03:36:34.629Z,13.1
2024-05-09T03:37:51.549Z,13
2024-05-09T03:39:08.594Z,13
2024-05-09T03:40:26.679Z,13
2024-05-09T03:41:42.645Z,12.9
2024-05-09T03:42:59.530Z,12.8
2024-05-09T03:44:16.607Z,12.7
2024-05-09T03:45:33.593Z,12.5
2024-05-09T03:46:50.562Z,12.5
2024-05-09T03:48:07.798Z,12.4
2024-05-09T03:49:24.846Z,12.4
2024-05-09T03:50:41.687Z,12.4
2024-05-09T03:51:58.554Z,12.5
2024-05-09T03:53:15.740Z,12.6
2024-05-09T03:54:32.574Z,12.4
2024-05-09T03:55:49.630Z,12.3
2024-05-09T03:57:06.563Z,12.2
2024-05-09T03:58:23.551Z,12.1
2024-05-09T03:59:40.624Z,12
2024-05-09T04:00:57.660Z,12
2024-05-09T04:02:14.611Z,12
2024-05-09T04:03:31.751Z,12
2024-05-09T04:04:48.669Z,12
2024-05-09T04:06:05.604Z,12
2024-05-09T04:07:22.644Z,12
2024-05-09T04:08:39.663Z,12.2
2024-05-09T04:09:56.577Z,12.3
2024-05-09T04:11:13.647Z,12.6
2024-05-09T04:12:30.635Z,12.8
2024-05-09T04:13:47.689Z,12.9
2024-05-09T04:15:04.590Z,13.1
2024-05-09T04:16:21.649Z,13.2
2024-05-09T04:17:38.827Z,13.3
2024-05-09T04:18:55.747Z,13.4
2024-05-09T04:20:21.006Z,13.6
2024-05-09T04:21:29.782Z,13.6
2024-05-09T04:22:46.691Z,13.7
2024-05-09T04:24:03.670Z,13.8
2024-05-09T04:25:20.608Z,13.9
2024-05-09T04:26:37.679Z,14
2024-05-09T04:27:54.715Z,14
2024-05-09T04:29:11.619Z,14.1
2024-05-09T04:30:33.893Z,14.2
2024-05-09T04:31:46.902Z,14.2
2024-05-09T04:33:03.736Z,14.3
2024-05-09T04:34:20.762Z,14.4
2024-05-09T04:35:37.717Z,14.4
2024-05-09T04:36:54.778Z,14.5
2024-05-09T04:38:11.689Z,14.6
2024-05-09T04:39:28.656Z,14.6
2024-05-09T04:40:45.775Z,14.7
2024-05-09T04:42:02.735Z,14.7
2024-05-09T04:43:19.731Z,14.8
2024-05-09T04:44:36.646Z,14.8
2024-05-09T04:45:56.883Z,14.9
2024-05-09T04:47:14.973Z,14.8
2024-05-09T04:48:31.729Z,14.9
2024-05-09T04:49:48.810Z,15
2024-05-09T04:51:08.667Z,15
2024-05-09T04:52:25.684Z,15.1
2024-05-09T04:53:42.872Z,15.2
2024-05-09T04:54:59.679Z,15.4
2024-05-09T04:56:16.727Z,15.4
2024-05-09T04:57:33.645Z,15.2
2024-05-09T04:58:50.807Z,15.1
2024-05-09T05:00:14.107Z,14.9
2024-05-09T05:01:24.720Z,14.9
2024-05-09T05:02:41.847Z,14.8
2024-05-09T05:03:58.923Z,14.7
2024-05-09T05:05:15.768Z,14.7
2024-05-09T05:06:32.666Z,14.6
2024-05-09T05:07:49.768Z,14.8
2024-05-09T05:09:06.768Z,15
2024-05-09T05:10:29.353Z,15.2
2024-05-09T05:11:40.777Z,15.3
2024-05-09T05:12:57.899Z,15.5
2024-05-09T05:14:15.786Z,15.6
2024-05-09T05:15:32.915Z,15.8
2024-05-09T05:16:49.871Z,15.8
2024-05-09T05:18:06.942Z,15.9
2024-05-09T05:19:24.019Z,15.9
2024-05-09T05:20:40.760Z,15.9
2024-05-09T05:21:57.687Z,16
2024-05-09T05:23:14.898Z,16.1
2024-05-09T05:24:31.712Z,16.2
2024-05-09T05:25:48.885Z,16.3
2024-05-09T05:27:05.931Z,16.4
2024-05-09T05:28:22.801Z,16.5
2024-05-09T05:29:39.910Z,16.6
2024-05-09T05:30:56.885Z,16.7
2024-05-09T05:32:13.818Z,16.7
2024-05-09T05:33:31.070Z,16.7
2024-05-09T05:34:47.823Z,16.8
2024-05-09T05:36:04.747Z,16.9
2024-05-09T05:37:21.812Z,16.9
2024-05-09T05:38:38.860Z,17
2024-05-09T05:39:55.841Z,17.1
2024-05-09T05:41:12.802Z,17.1
2024-05-09T05:42:32.764Z,17.1
2024-05-09T05:43:49.774Z,17.1
2024-05-09T05:45:08.327Z,17.2
2024-05-09T05:46:23.832Z,17.2
2024-05-09T05:47:40.998Z,17.3
2024-05-09T05:48:57.922Z,17.4
2024-05-09T05:50:20.870Z,17.5
2024-05-09T05:51:32.112Z,17.6
2024-05-09T05:52:48.869Z,17.7
2024-05-09T05:54:05.745Z,17.8
2024-05-09T05:55:22.768Z,17.9
2024-05-09T05:56:39.972Z,17.9
2024-05-09T05:57:56.818Z,17.9
2024-05-09T05:59:15.273Z,17.8
2024-05-09T06:00:36.954Z,17.8
2024-05-09T06:01:47.912Z,17.9
2024-05-09T06:03:05.121Z,18
2024-05-09T06:04:21.999Z,18.1
2024-05-09T06:05:38.986Z,18.1
2024-05-09T06:06:56.177Z,18.2
2024-05-09T06:08:13.010Z,18.2
2024-05-09T06:09:32.290Z,18.1
2024-05-09T06:10:47.015Z,18
2024-05-09T06:12:06.889Z,17.9
2024-05-09T06:13:20.875Z,17.7
2024-05-09T06:14:37.795Z,17.7
2024-05-09T06:15:54.776Z,17.7
2024-05-09T06:17:11.978Z,17.7
2024-05-09T06:18:29.025Z,17.8
2024-05-09T06:19:46.253Z,18
2024-05-09T06:21:03.835Z,18.4
2024-05-09T06:22:21.281Z,19
2024-05-09T06:23:38.350Z,19.7
2024-05-09T06:24:54.864Z,20.5
2024-05-09T06:26:11.873Z,21.2
2024-05-09T06:27:28.858Z,21.9
2024-05-09T06:28:46.011Z,22.6
2024-05-09T06:30:03.003Z,22.9
2024-05-09T06:31:19.800Z,23.4
2024-05-09T06:32:36.992Z,23.9
2024-05-09T06:33:56.697Z,24.4
2024-05-09T06:35:16.497Z,24.8
2024-05-09T06:36:32.801Z,25.2
2024-05-09T06:37:49.965Z,25.1
2024-05-09T06:39:06.858Z,25.1
2024-05-09T06:40:25.587Z,25.4
2024-05-09T06:41:40.982Z,25.9
2024-05-09T06:42:57.993Z,26.6
2024-05-09T06:44:15.379Z,27.1
2024-05-09T06:45:32.862Z,27.6
2024-05-09T06:46:49.959Z,27.8
2024-05-09T06:48:07.089Z,27.5
2024-05-09T06:49:23.968Z,27.3
2024-05-09T06:50:40.953Z,27
2024-05-09T06:51:57.899Z,26.9
2024-05-09T06:53:15.283Z,27
2024-05-09T06:54:31.915Z,27.3
2024-05-09T06:55:49.040Z,27.5
2024-05-09T06:57:05.868Z,27.6
2024-05-09T06:58:22.868Z,27.8
2024-05-09T06:59:39.995Z,27.9
2024-05-09T07:00:56.952Z,28
2024-05-09T07:02:13.940Z,28
2024-05-09T07:03:30.991Z,27.9
2024-05-09T07:04:47.964Z,27.5
2024-05-09T07:06:04.949Z,27.1
2024-05-09T07:07:22.098Z,26.8
2024-05-09T07:08:39.004Z,26.9
2024-05-09T07:09:55.925Z,26.9
2024-05-09T07:11:13.017Z,27
2024-05-09T07:12:29.939Z,27.2
2024-05-09T07:13:46.967Z,27.6
2024-05-09T07:15:04.042Z,28.1
2024-05-09T07:16:20.928Z,28.5
2024-05-09T07:17:38.189Z,28.9
2024-05-09T07:18:55.106Z,29.2
2024-05-09T07:20:16.133Z,29.5
2024-05-09T07:21:28.906Z,29.7
2024-05-09T07:22:46.359Z,30
2024-05-09T07:24:04.161Z,30.2
2024-05-09T07:25:20.994Z,30.2
2024-05-09T07:26:40.313Z,30.1
2024-05-09T07:27:56.991Z,30.1
2024-05-09T07:29:13.966Z,30.3
2024-05-09T07:30:33.572Z,30.4
2024-05-09T07:31:48.155Z,30.7
2024-05-09T07:33:05.289Z,30.4
2024-05-09T07:34:22.105Z,29.9
2024-05-09T07:35:39.082Z,29
2024-05-09T07:36:56.071Z,28.4
2024-05-09T07:38:13.129Z,27.5
2024-05-09T07:39:30.184Z,26.9
2024-05-09T07:40:47.273Z,26.6
2024-05-09T07:42:04.988Z,26.5
2024-05-09T07:43:22.139Z,26.1
2024-05-09T07:44:39.000Z,26
2024-05-09T07:45:57.072Z,25.9
2024-05-09T07:47:47.600Z,25.8
2024-05-09T07:49:13.584Z,25.7
2024-05-09T07:53:08.546Z,25.5
2024-05-09T07:53:41.740Z,25.6
2024-05-09T07:54:55.236Z,25.9
2024-05-09T07:56:12.405Z,25.7
2024-05-09T07:57:29.143Z,25.4
2024-05-09T07:58:46.023Z,25.1
2024-05-09T08:00:03.289Z,25.3
2024-05-09T08:01:20.490Z,25.7
2024-05-09T08:02:39.290Z,26
2024-05-09T08:03:56.194Z,26.5
2024-05-09T08:05:13.144Z,26.7
2024-05-09T08:06:30.064Z,27.1
2024-05-09T08:07:46.981Z,27.3
2024-05-09T08:09:07.736Z,27.6
2024-05-09T08:10:22.069Z,27.5
2024-05-09T08:11:38.240Z,27.4
2024-05-09T08:12:55.010Z,27.2
2024-05-09T08:14:11.979Z,26.6
2024-05-09T08:15:29.183Z,26.1
2024-05-09T08:16:48.014Z,25.9
2024-05-09T08:18:05.090Z,26.1
2024-05-09T08:19:22.167Z,26.3
2024-05-09T08:20:39.235Z,26.6
2024-05-09T08:21:56.049Z,26.4
2024-05-09T08:23:13.009Z,26.1
2024-05-09T08:24:30.062Z,26.1
2024-05-09T08:25:47.025Z,26
2024-05-09T08:27:04.015Z,25.9
2024-05-09T08:28:21.112Z,26
2024-05-09T08:29:38.052Z,26.3
2024-05-09T08:30:55.153Z,26.6
2024-05-09T08:32:12.285Z,26.8
2024-05-09T08:33:29.232Z,26.7
2024-05-09T08:34:46.366Z,26.6
2024-05-09T08:36:03.035Z,26.4
2024-05-09T08:37:22.249Z,26.7
2024-05-09T08:38:37.051Z,26.7
2024-05-09T08:39:54.408Z,26.2
2024-05-09T08:41:12.079Z,25.6
2024-05-09T08:42:29.042Z,25.4
2024-05-09T08:43:46.399Z,25.7
2024-05-09T08:45:03.073Z,26
2024-05-09T08:46:20.211Z,26.4
2024-05-09T08:47:37.184Z,26.8
2024-05-09T08:48:54.235Z,26.8
2024-05-09T08:50:19.909Z,26.8
2024-05-09T08:51:28.118Z,26.6
2024-05-09T08:52:45.097Z,26.4
2024-05-09T08:54:02.113Z,26.1
2024-05-09T08:55:19.375Z,25.9
2024-05-09T08:56:36.057Z,25.7
2024-05-09T08:57:53.086Z,25.4
2024-05-09T08:59:10.177Z,25.1
2024-05-09T09:00:29.853Z,24.8
2024-05-09T09:01:44.211Z,24.6
2024-05-09T09:03:01.132Z,24.5
2024-05-09T09:04:18.312Z,24.6
2024-05-09T09:05:36.122Z,24.7
2024-05-09T09:06:54.832Z,25
2024-05-09T09:08:10.159Z,25.6
2024-05-09T09:09:27.277Z,25.5
2024-05-09T09:10:44.221Z,25.8
2024-05-09T09:12:01.207Z,26.4
2024-05-09T09:13:18.206Z,27
2024-05-09T09:14:35.124Z,27.4
2024-05-09T09:15:52.294Z,27.5
2024-05-09T09:17:09.468Z,27.6
2024-05-09T09:18:26.230Z,27.3
2024-05-09T09:19:43.177Z,27.1
2024-05-09T09:21:00.387Z,27
2024-05-09T09:22:28.640Z,26.9
2024-05-09T09:23:45.220Z,26.9
2024-05-09T09:25:02.278Z,27
2024-05-09T09:26:19.293Z,27.4
2024-05-09T09:27:36.347Z,28
2024-05-09T09:28:53.210Z,28.6
2024-05-09T09:30:18.450Z,29
2024-05-09T09:31:27.337Z,29.2
2024-05-09T09:32:44.259Z,29.4
2024-05-09T09:34:01.342Z,29.3
2024-05-09T09:35:21.480Z,29.2
2024-05-09T09:36:36.243Z,29.2
2024-05-09T09:37:53.283Z,28.9
2024-05-09T09:39:10.332Z,28.2
2024-05-09T09:40:31.262Z,27.4
2024-05-09T09:41:44.264Z,26.5
2024-05-09T09:43:01.181Z,26
2024-05-09T09:44:18.581Z,26
2024-05-09T09:45:36.332Z,26.1
2024-05-09T09:46:53.167Z,26.2
2024-05-09T09:48:10.359Z,26.3
2024-05-09T09:49:27.303Z,26.3
2024-05-09T09:50:44.458Z,26.2
2024-05-09T09:52:01.214Z,26.3
2024-05-09T09:53:20.871Z,26.1
2024-05-09T09:54:36.362Z,25.9
2024-05-09T09:55:54.666Z,26
2024-05-09T09:57:12.596Z,25.7
2024-05-09T09:58:29.298Z,25.6
2024-05-09T09:59:46.256Z,25.5
2024-05-09T10:01:03.270Z,25.3
2024-05-09T10:02:20.348Z,25.1
2024-05-09T10:03:37.306Z,25.1
2024-05-09T10:04:54.364Z,25.6
2024-05-09T10:06:11.350Z,26.1
2024-05-09T10:07:28.269Z,26.5
2024-05-09T10:08:45.168Z,26.8
2024-05-09T10:10:02.613Z,27
2024-05-09T10:11:20.559Z,27.2
2024-05-09T10:12:37.248Z,27.3
2024-05-09T10:13:54.519Z,26.9
2024-05-09T10:15:12.358Z,26.6
2024-05-09T10:16:29.565Z,26.7
2024-05-09T10:17:49.422Z,26.9
2024-05-09T10:19:09.347Z,26.9
2024-05-09T10:20:28.285Z,26.9
2024-05-09T10:23:12.276Z,27.5
2024-05-09T10:24:29.236Z,27.2
2024-05-09T10:25:46.404Z,26.7
2024-05-09T10:27:03.299Z,26.5
2024-05-09T10:28:20.350Z,26.8
2024-05-09T10:29:37.318Z,27.2
2024-05-09T10:30:54.356Z,27.7
2024-05-09T10:32:11.348Z,28
2024-05-09T10:33:28.416Z,28
2024-05-09T10:34:45.351Z,28.2
2024-05-09T10:36:02.360Z,28.2
2024-05-09T10:37:19.446Z,28
2024-05-09T10:38:36.262Z,27.7
2024-05-09T10:39:53.302Z,27.4
2024-05-09T10:41:10.318Z,27
2024-05-09T10:42:27.352Z,26.3
2024-05-09T10:43:44.281Z,25.6
2024-05-09T10:45:01.396Z,25.1
2024-05-09T10:46:18.418Z,25
2024-05-09T10:47:35.491Z,24.8
2024-05-09T10:48:52.442Z,24.8
2024-05-09T10:50:15.608Z,24.5
2024-05-09T10:51:26.243Z,24.6
2024-05-09T10:52:43.264Z,24.7
2024-05-09T10:54:00.355Z,24.5
2024-05-09T10:55:17.319Z,24.2
2024-05-09T10:56:34.484Z,23.9
2024-05-09T10:57:51.336Z,24
2024-05-09T10:59:08.393Z,23.9
2024-05-09T11:00:30.035Z,23.9
2024-05-09T11:01:42.450Z,24
2024-05-09T11:02:59.296Z,23.6
2024-05-09T11:04:16.700Z,23.4
2024-05-09T11:05:37.006Z,23.2
2024-05-09T11:06:54.329Z,23.1
2024-05-09T11:08:12.270Z,23.2
2024-05-09T11:09:29.391Z,23.4
2024-05-09T11:10:46.511Z,23.9
2024-05-09T11:12:03.450Z,24.7
2024-05-09T11:13:20.325Z,25.5
2024-05-09T11:14:37.380Z,26.3
2024-05-09T11:15:54.775Z,26.5
2024-05-09T11:17:26.558Z,26.4
2024-05-09T11:18:43.961Z,26.3
2024-05-09T11:20:00.431Z,26.6
2024-05-09T11:21:17.318Z,27
2024-05-09T11:22:34.408Z,27.3
2024-05-09T11:23:51.363Z,27.4
2024-05-09T11:25:08.474Z,27.5
2024-05-09T11:26:25.590Z,27.3
2024-05-09T11:27:42.739Z,27.4
2024-05-09T11:29:00.427Z,27.7
2024-05-09T11:30:21.021Z,28.1
2024-05-09T11:31:37.383Z,28
2024-05-09T11:32:54.362Z,27.8
2024-05-09T11:34:11.340Z,27.5
2024-05-09T11:35:28.434Z,27
2024-05-09T11:36:45.873Z,26.5
2024-05-09T11:38:02.520Z,26.2
2024-05-09T11:39:19.401Z,25.9
2024-05-09T11:40:36.712Z,25.7
2024-05-09T11:41:54.438Z,25.5
2024-05-09T11:43:11.451Z,25.7
2024-05-09T11:44:28.430Z,26.1
2024-05-09T11:45:45.349Z,26.2
2024-05-09T11:47:02.346Z,26.2
2024-05-09T11:48:19.700Z,26.1
2024-05-09T11:49:36.841Z,26.1
2024-05-09T11:50:54.593Z,26.2
2024-05-09T11:52:11.574Z,26.2
2024-05-09T11:53:28.445Z,26.1
2024-05-09T11:54:45.442Z,26.1
2024-05-09T11:56:02.735Z,25.9
2024-05-09T11:57:19.404Z,25.7
2024-05-09T11:58:36.612Z,25.6
2024-05-09T11:59:54.357Z,25.7
2024-05-09T12:01:11.542Z,25.9
2024-05-09T12:02:28.455Z,25.9
2024-05-09T12:03:45.530Z,25.8
2024-05-09T12:05:02.535Z,25.9
2024-05-09T12:06:19.599Z,25.7
2024-05-09T12:07:39.369Z,25.5
2024-05-09T12:08:56.529Z,25.4
2024-05-09T12:10:14.221Z,25.3
2024-05-09T12:11:30.604Z,25.1
2024-05-09T12:12:47.448Z,25.1
2024-05-09T12:14:04.454Z,25.3
2024-05-09T12:15:21.423Z,25.4
2024-05-09T12:16:38.730Z,25.4
2024-05-09T12:17:57.294Z,25.5
2024-05-09T12:19:12.462Z,25.7
2024-05-09T12:20:34.699Z,26.1
2024-05-09T12:21:46.540Z,26.5
2024-05-09T12:23:03.914Z,26.9
2024-05-09T12:24:21.667Z,27.3
2024-05-09T12:25:38.723Z,27.7
2024-05-09T12:26:55.507Z,28.1
2024-05-09T12:28:12.673Z,28.4
2024-05-09T12:29:29.423Z,28.1
2024-05-09T12:30:46.444Z,27.5
2024-05-09T12:32:03.565Z,26.9
2024-05-09T12:33:20.875Z,26.4
2024-05-09T12:34:38.495Z,26.2
2024-05-09T12:35:55.780Z,26.2
2024-05-09T12:37:12.468Z,26.4
2024-05-09T12:38:29.520Z,26.4
2024-05-09T12:39:46.481Z,26.1
2024-05-09T12:41:03.551Z,26
2024-05-09T12:42:26.384Z,26
2024-05-09T12:43:37.505Z,25.7
2024-05-09T12:44:54.678Z,25.4
2024-05-09T12:46:14.142Z,25
2024-05-09T12:47:31.537Z,24.7
2024-05-09T12:48:48.708Z,24.3
2024-05-09T12:50:08.142Z,24.1
2024-05-09T12:51:22.498Z,24.1
2024-05-09T12:52:39.516Z,24.3
2024-05-09T12:53:56.529Z,24.6
2024-05-09T12:55:13.531Z,24.6
2024-05-09T12:56:30.480Z,24.8
2024-05-09T12:57:47.516Z,25.2
2024-05-09T12:59:04.561Z,25.6
2024-05-09T13:00:27.873Z,25.8
2024-05-09T13:01:42.671Z,26.3
2024-05-09T13:03:01.052Z,26.8
2024-05-09T13:04:25.347Z,26.8
2024-05-09T13:05:42.591Z,26.8
2024-05-09T13:06:59.659Z,27.1
2024-05-09T13:08:17.512Z,27.5
2024-05-09T13:09:34.836Z,28
2024-05-09T13:10:51.732Z,28.2
2024-05-09T13:12:08.549Z,28.1
2024-05-09T13:13:25.566Z,28.4
2024-05-09T13:14:42.506Z,28.9
2024-05-09T13:15:59.740Z,29.3
2024-05-09T13:17:16.743Z,29.3
2024-05-09T13:18:33.740Z,29
2024-05-09T13:19:50.662Z,28.7
2024-05-09T13:21:07.520Z,28.6
2024-05-09T13:22:24.569Z,28.3
2024-05-09T13:23:44.461Z,27.9
2024-05-09T13:25:01.912Z,27.7
2024-05-09T13:26:18.736Z,27.5
2024-05-09T13:27:35.644Z,27.4
2024-05-09T13:28:52.584Z,27.7
2024-05-09T13:30:11.995Z,27.8
2024-05-09T13:31:26.732Z,27.8
2024-05-09T13:32:43.652Z,27.7
2024-05-09T13:34:00.919Z,27.8
2024-05-09T13:35:17.719Z,28.2
2024-05-09T13:36:34.785Z,28.7
2024-05-09T13:37:51.620Z,29
2024-05-09T13:39:08.766Z,28.9
2024-05-09T13:40:29.747Z,28.6
2024-05-09T13:41:42.829Z,28.2
2024-05-09T13:43:00.625Z,28.1
2024-05-09T13:44:17.617Z,27.8
2024-05-09T13:45:34.647Z,27.8
2024-05-09T13:46:51.762Z,27.9
2024-05-09T13:48:08.709Z,28.2
2024-05-09T13:49:25.695Z,28.6
2024-05-09T13:50:42.724Z,28.9
2024-05-09T13:52:00.754Z,29
2024-05-09T13:53:41.129Z,29
2024-05-09T13:55:16.773Z,28.8
2024-05-09T13:56:47.209Z,28.5
2024-05-09T13:58:10.921Z,28.6
2024-05-09T13:59:42.571Z,28.4
2024-05-09T14:00:59.745Z,28.2
2024-05-09T14:02:20.005Z,28.4
2024-05-09T14:03:52.604Z,28.4
2024-05-09T14:05:09.737Z,28.5
2024-05-09T14:06:27.888Z,28.5
2024-05-09T14:07:47.479Z,28.4
2024-05-09T14:09:19.543Z,28.3
2024-05-09T14:10:36.795Z,28.1
2024-05-09T14:11:54.916Z,28.2
2024-05-09T14:13:11.794Z,28.3
2024-05-09T14:14:29.618Z,28.6
2024-05-09T14:15:53.502Z,28.8
2024-05-09T14:17:10.819Z,28.5
2024-05-09T14:18:27.740Z,28
2024-05-09T14:19:44.695Z,27.7
2024-05-09T14:21:04.507Z,27.6
2024-05-09T14:22:21.643Z,27.6
2024-05-09T14:23:38.837Z,27.5
2024-05-09T14:24:55.970Z,27.3
2024-05-09T14:26:13.662Z,27
2024-05-09T14:27:30.892Z,26.9
2024-05-09T14:28:48.437Z,26.7
2024-05-09T14:30:11.735Z,26.5
2024-05-09T14:31:23.722Z,26.3
2024-05-09T14:32:40.720Z,26.3
2024-05-09T14:33:57.891Z,26.3
2024-05-09T14:35:17.337Z,26.4
2024-05-09T14:36:37.887Z,26.6
2024-05-09T14:37:54.702Z,26.9
2024-05-09T14:39:11.737Z,27.2
2024-05-09T14:40:35.415Z,27.5
2024-05-09T14:41:45.785Z,27.9
2024-05-09T14:43:03.081Z,28.2
2024-05-09T14:44:19.719Z,28.6
2024-05-09T14:45:36.682Z,28.7
2024-05-09T14:46:53.803Z,28.5
2024-05-09T14:48:11.887Z,28.3
2024-05-09T14:49:28.852Z,28.1
2024-05-09T14:50:47.148Z,28
2024-05-09T14:52:19.769Z,28.1
2024-05-09T14:53:37.777Z,28
2024-05-09T14:54:59.773Z,27.9
2024-05-09T14:56:11.744Z,27.9
2024-05-09T14:57:28.778Z,27.9
2024-05-09T14:58:46.767Z,27.9
2024-05-09T15:00:05.219Z,27.6
2024-05-09T15:01:21.005Z,27.2
2024-05-09T15:02:38.153Z,26.8
2024-05-09T15:03:55.770Z,26.4
2024-05-09T15:05:15.545Z,26.2
2024-05-09T15:06:31.062Z,26.2
2024-05-09T15:07:48.706Z,26.3
2024-05-09T15:09:05.717Z,26.4
2024-05-09T15:10:26.191Z,26.4
2024-05-09T15:11:39.822Z,26.3
2024-05-09T15:12:56.744Z,26.2
2024-05-09T15:14:13.838Z,26.2
2024-05-09T15:15:31.017Z,26.2
2024-05-09T15:16:47.800Z,26.2
2024-05-09T15:18:05.122Z,25.9
2024-05-09T15:19:21.906Z,25.6
2024-05-09T15:20:39.087Z,25.4
2024-05-09T15:21:56.951Z,25.4
2024-05-09T15:23:13.965Z,25.4
2024-05-09T15:24:30.839Z,25.5
2024-05-09T15:25:47.860Z,25.7
2024-05-09T15:27:04.885Z,25.9
2024-05-09T15:28:22.054Z,26
2024-05-09T15:29:38.854Z,26.1
2024-05-09T15:30:55.889Z,26
2024-05-09T15:32:12.829Z,25.8
2024-05-09T15:33:29.931Z,25.7
2024-05-09T15:34:46.876Z,25.7
2024-05-09T15:36:03.924Z,25.3
2024-05-09T15:37:21.891Z,25.1
2024-05-09T15:38:38.887Z,24.9
2024-05-09T15:39:55.754Z,24.8
2024-05-09T15:41:12.839Z,24.7
2024-05-09T15:42:30.738Z,24.6
2024-05-09T15:43:47.839Z,24.5
2024-05-09T15:45:04.906Z,24.5
2024-05-09T15:46:21.945Z,24.7
2024-05-09T15:47:38.972Z,24.9
2024-05-09T15:48:56.063Z,25.1
2024-05-09T15:50:17.282Z,25.2
2024-05-09T15:51:29.938Z,25.4
2024-05-09T15:52:46.803Z,25.6
2024-05-09T15:54:03.973Z,25.5
2024-05-09T15:55:20.927Z,25.5
2024-05-09T15:56:37.827Z,25.5
2024-05-09T15:57:54.824Z,25.3
2024-05-09T15:59:11.935Z,24.9
2024-05-09T16:00:34.214Z,24.7
2024-05-09T16:01:45.897Z,24.7
2024-05-09T16:03:06.045Z,24.5
2024-05-09T16:04:23.045Z,24.4
2024-05-09T16:05:40.176Z,24.4
2024-05-09T16:06:56.900Z,24.5
2024-05-09T16:08:13.795Z,24.7
2024-05-09T16:09:33.950Z,24.8
2024-05-09T16:10:50.937Z,25
2024-05-09T16:12:07.875Z,25.2
2024-05-09T16:13:24.921Z,25.3
2024-05-09T16:14:41.931Z,25.4
2024-05-09T16:15:59.072Z,25.5
2024-05-09T16:17:15.890Z,25.6
2024-05-09T16:18:32.839Z,25.7
2024-05-09T16:19:49.868Z,25.7
2024-05-09T16:21:06.817Z,25.5
2024-05-09T16:22:23.856Z,25.2
2024-05-09T16:23:40.847Z,25.1
2024-05-09T16:24:57.924Z,25.1
2024-05-09T16:26:14.895Z,25.1
2024-05-09T16:27:31.951Z,24.9
2024-05-09T16:28:48.873Z,24.8
2024-05-09T16:30:09.278Z,24.5
2024-05-09T16:31:22.972Z,24.4
2024-05-09T16:32:39.913Z,24.4
2024-05-09T16:33:56.977Z,24.5
2024-05-09T16:35:13.851Z,24.5
2024-05-09T16:36:31.277Z,24.5
2024-05-09T16:37:47.860Z,24.4
2024-05-09T16:39:04.915Z,24.4
2024-05-09T16:40:30.036Z,24.5
2024-05-09T16:41:46.105Z,24.6
2024-05-09T16:43:02.889Z,24.7
2024-05-09T16:44:19.943Z,24.9
2024-05-09T16:45:37.046Z,25
2024-05-09T16:46:53.925Z,25.2
2024-05-09T16:48:10.915Z,25.4
2024-05-09T16:49:27.986Z,25.5
2024-05-09T16:50:44.920Z,25.6
2024-05-09T16:52:01.980Z,25.5
2024-05-09T16:53:18.943Z,25.5
2024-05-09T16:54:35.934Z,25.5
2024-05-09T16:55:52.884Z,25.3
2024-05-09T16:57:09.892Z,25.2
2024-05-09T16:58:27.055Z,25.2
2024-05-09T16:59:43.893Z,25.2
2024-05-09T17:01:01.026Z,25.2
2024-05-09T17:02:18.096Z,25.3
2024-05-09T17:03:35.120Z,25.3
2024-05-09T17:04:52.012Z,25.4
2024-05-09T17:06:08.959Z,25.5
2024-05-09T17:07:25.985Z,25.5
2024-05-09T17:08:42.941Z,25.6
2024-05-09T17:09:59.942Z,25.7
2024-05-09T17:11:16.943Z,25.7
2024-05-09T17:12:33.922Z,25.7
2024-05-09T17:13:50.995Z,25.7
2024-05-09T17:15:07.928Z,25.7
2024-05-09T17:16:24.990Z,25.8
2024-05-09T17:17:41.920Z,25.7
2024-05-09T17:18:58.968Z,25.7
2024-05-09T17:20:23.067Z,25.7
2024-05-09T17:21:32.966Z,25.6